Flight Track Log - Related Links

Times and Time Zones

All times are in EDT time to prevent confusion due to time zone crossing. See the KAP927 flight status page for this flight to view local times or setup timezone preferences in your user account.

Time Position Orientation Groundspeed Altitude Reporting Facility
EDT Latitude Longitude Course Direction KTS MPH feet Rate Location/Type
Fri 01:08:15 PM 42.3833 -71.0000 251° West 99 114 500  Level KA90
Fri 01:09:57 PM 42.3667 -71.0667 251° West 115 132 1,600 704 Climbing KA90
Fri 01:10:57 PM 42.3500 -71.1167 246° West 124 143 2,400 639 Climbing KA90
Fri 01:11:59 PM 42.3333 -71.1667 246° West 129 148 2,900 579 Climbing KA90
Fri 01:12:51 PM 42.3333 -71.2000 270° West 131 151 3,500 643 Climbing KA90
Fri 01:13:51 PM 42.3333 -71.2500 270° West 130 150 4,100 700 Climbing KA90
Fri 01:14:51 PM 42.3333 -71.3000 270° West 125 144 4,900 684 Climbing KA90
Fri 01:15:45 PM 42.3167 -71.3333 236° Southwest 127 146 5,400 619 Climbing KA90
Fri 01:16:57 PM 42.3167 -71.4000 270° West 126 145 6,200 586 Climbing KA90
Fri 01:17:58 PM 42.3167 -71.4500 270° West 126 145 6,700 525 Climbing KA90
Fri 01:18:17 PM 42.3067 -71.4631 224° Southwest 127 146 6,900 484 Climbing Boston Center
Fri 01:19:00 PM 42.3028 -71.4997 262° West 126 145 7,200 436 Climbing Boston Center
Fri 01:20:07 PM 42.2969 -71.5503 261° West 126 145 7,700 344 Climbing Boston Center
Fri 01:21:02 PM 42.2889 -71.5953 256° West 130 150 7,900 157 Climbing Boston Center
Fri 01:22:02 PM 42.2831 -71.6486 262° West 144 166 8,000  Climbing Boston Center
Fri 01:23:03 PM 42.2856 -71.7047 273° West 151 174 7,900  Descending Boston Center
Fri 01:24:04 PM 42.2839 -71.7639 268° West 144 166 8,000 47 Climbing Boston Center
Fri 01:25:11 PM 42.2842 -71.8200 270° West 141 162 8,000  Level Boston Center
Fri 01:26:12 PM 42.2822 -71.8733 267° West 142 163 8,000  Level Boston Center
Fri 01:27:07 PM 42.2844 -71.9208 274° West 140 161 8,000  Level Boston Center
Fri 01:28:08 PM 42.2847 -71.9769 270° West 143 165 8,000  Level Boston Center
Fri 01:29:09 PM 42.2975 -72.0275 289° West 142 163 8,000  Level Boston Center
Fri 01:30:09 PM 42.3103 -72.0781 289° West 138 159 8,000  Level Boston Center
Fri 01:31:10 PM 42.3208 -72.1311 285° West 140 161 8,000  Level Boston Center
Fri 01:32:17 PM 42.3375 -72.1844 293° West 142 163 8,000  Level Boston Center
Fri 01:33:18 PM 42.3481 -72.2378 285° West 145 167 8,000  Level Boston Center
Fri 01:34:19 PM 42.3650 -72.2883 294° West 144 166 8,000  Level Boston Center
Fri 01:35:20 PM 42.3794 -72.3389 291° West 144 166 8,000  Level Boston Center
Fri 01:36:21 PM 42.3919 -72.3894 289° West 143 165 8,000  Level Boston Center
Fri 01:37:22 PM 42.4067 -72.4428 291° West 141 162 8,000  Level Boston Center
Fri 01:38:17 PM 42.4192 -72.4850 292° West 141 162 8,000  Level Boston Center
Fri 01:39:18 PM 42.4317 -72.5386 288° West 141 162 8,000  Level Boston Center
Fri 01:40:18 PM 42.4442 -72.5892 289° West 140 161 8,000  Level Boston Center
Fri 01:41:19 PM 42.4544 -72.6400 285° West 141 162 8,000  Level Boston Center
Fri 01:42:14 PM 42.4689 -72.6878 292° West 145 167 8,000  Level Boston Center
Fri 01:43:15 PM 42.4814 -72.7414 288° West 145 167 8,000  Level Boston Center
Fri 01:44:18 PM 42.4958 -72.7950 290° West 149 171 8,000 68 Level Boston Center
Fri 01:44:43 PM 42.5019 -72.8175 290° West 147 169 8,100 109 Climbing Boston Center
Fri 01:45:13 PM 42.5061 -72.8400 284° West 146 168 8,100  Level Boston Center
Fri 01:46:20 PM 42.5203 -72.9050 286° West 150 173 8,100 -47 Level Boston Center
Fri 01:47:21 PM 42.5347 -72.9586 290° West 151 174 8,000 -55 Descending Boston Center
Fri 01:48:09 PM 42.5450 -72.9981 289° West 147 169 8,000  Level Boston Center
Fri 01:49:16 PM 42.5592 -73.0603 287° West 151 174 8,000  Level Boston Center
Fri 01:50:11 PM 42.5714 -73.1111 288° West 150 173 8,000  Level Boston Center
Fri 01:51:11 PM 42.5878 -73.1619 294° West 146 168 8,000  Level Boston Center
Fri 01:52:12 PM 42.6000 -73.2158 287° West 149 171 8,000  Level Boston Center
Fri 01:53:19 PM 42.6142 -73.2722 289° West 151 174 8,000  Level Boston Center
Fri 01:54:20 PM 42.6283 -73.3233 291° West 145 167 8,000 -397 Level Boston Center
Fri 01:55:20 PM 42.6361 -73.3883 279° West 169 194 7,200 -893 Descending Boston Center
Fri 01:56:21 PM 42.6503 -73.4478 288° West 171 197 6,200 -945 Descending Boston Center
Fri 01:57:27 PM 42.6664 -73.5103 289° West 160 184 5,200 -843 Descending Boston Center
Fri 01:58:22 PM 42.6783 -73.5611 288° West 157 181 4,500 -776 Descending Boston Center
Fri 01:59:23 PM 42.6922 -73.6236 287° West 162 186 3,700 -843 Descending Boston Center
Fri 02:00:23 PM 42.7061 -73.6861 287° West 172 198 2,800 -887 Descending Boston Center
Fri 02:01:18 PM 42.7097 -73.7397 275° West 157 181 2,000 -776 Descending Boston Center
Fri 02:02:19 PM 42.7114 -73.7908 273° West 124 143 1,300 -744 Descending Boston Center
Fri 02:03:19 PM 42.7339 -73.8081 331° Northwest 88 101 500 -800 Descending Boston Center
Fri 02:05:00 PM 42.7491 -73.8020 16° North  Level Estimated
Fri 02:12:00 PM 42.7491 -73.8020 304° West  Level Estimated
Fri 02:13:00 PM 42.7491 -73.8020 304° West  Level Estimated

Login

Don't have an account? Register now (free) for customized features, flight alerts, and more!